sensor_id;sensor_type;location;lat;lon;timestamp;pressure;altitude;pressure_sealevel;temperature;humidity
77003;BME280;65939;50.060;14.288;2023-06-14T00:00:52;97073.88;;;11.87;90.11
77003;BME280;65939;50.060;14.288;2023-06-14T00:02:56;97081.09;;;11.85;89.15
77003;BME280;65939;50.060;14.288;2023-06-14T00:04:58;97082.19;;;11.82;88.90
77003;BME280;65939;50.060;14.288;2023-06-14T00:06:59;97085.16;;;11.79;89.18
77003;BME280;65939;50.060;14.288;2023-06-14T00:09:00;97088.56;;;11.80;89.21
77003;BME280;65939;50.060;14.288;2023-06-14T00:11:01;97079.25;;;11.77;88.48
77003;BME280;65939;50.060;14.288;2023-06-14T00:13:03;97077.63;;;11.76;88.62
77003;BME280;65939;50.060;14.288;2023-06-14T00:15:05;97075.34;;;11.73;89.80
77003;BME280;65939;50.060;14.288;2023-06-14T00:17:06;97082.56;;;11.71;89.12
77003;BME280;65939;50.060;14.288;2023-06-14T00:19:08;97082.72;;;11.69;90.13
77003;BME280;65939;50.060;14.288;2023-06-14T00:21:10;97075.84;;;11.68;89.99
77003;BME280;65939;50.060;14.288;2023-06-14T00:23:11;97077.00;;;11.66;90.48
77003;BME280;65939;50.060;14.288;2023-06-14T00:25:12;97088.44;;;11.65;89.99
77003;BME280;65939;50.060;14.288;2023-06-14T00:27:12;97080.13;;;11.61;90.44
77003;BME280;65939;50.060;14.288;2023-06-14T00:29:13;97084.53;;;11.61;90.32
77003;BME280;65939;50.060;14.288;2023-06-14T00:31:13;97084.69;;;11.59;90.46
77003;BME280;65939;50.060;14.288;2023-06-14T00:33:14;97079.66;;;11.58;90.33
77003;BME280;65939;50.060;14.288;2023-06-14T00:35:15;97079.81;;;11.56;90.13
77003;BME280;65939;50.060;14.288;2023-06-14T00:37:16;97071.31;;;11.54;89.64
77003;BME280;65939;50.060;14.288;2023-06-14T00:39:16;97072.31;;;11.53;89.89
77003;BME280;65939;50.060;14.288;2023-06-14T00:41:17;97074.25;;;11.51;89.70
77003;BME280;65939;50.060;14.288;2023-06-14T00:43:18;97076.22;;;11.49;90.59
77003;BME280;65939;50.060;14.288;2023-06-14T00:45:18;97076.41;;;11.47;89.97
77003;BME280;65939;50.060;14.288;2023-06-14T00:47:20;97081.81;;;11.46;90.03
77003;BME280;65939;50.060;14.288;2023-06-14T00:49:21;97079.34;;;11.44;89.45
77003;BME280;65939;50.060;14.288;2023-06-14T00:51:22;97083.28;;;11.40;90.12
77003;BME280;65939;50.060;14.288;2023-06-14T00:53:22;97091.28;;;11.39;90.25
77003;BME280;65939;50.060;14.288;2023-06-14T00:55:25;97085.41;;;11.37;89.65
77003;BME280;65939;50.060;14.288;2023-06-14T00:57:27;97081.16;;;11.36;90.54
77003;BME280;65939;50.060;14.288;2023-06-14T00:59:27;97074.47;;;11.33;89.56
77003;BME280;65939;50.060;14.288;2023-06-14T01:01:29;97071.19;;;11.31;90.48
77003;BME280;65939;50.060;14.288;2023-06-14T01:03:32;97070.38;;;11.31;90.15
77003;BME280;65939;50.060;14.288;2023-06-14T01:05:33;97068.94;;;11.28;90.86
77003;BME280;65939;50.060;14.288;2023-06-14T01:12:50;97079.53;;;11.18;92.01
77003;BME280;65939;50.060;14.288;2023-06-14T01:14:54;97073.66;;;11.16;92.30
77003;BME280;65939;50.060;14.288;2023-06-14T01:16:56;97074.63;;;11.15;92.34
77003;BME280;65939;50.060;14.288;2023-06-14T01:19:00;97073.81;;;11.15;91.62
77003;BME280;65939;50.060;14.288;2023-06-14T01:21:02;97073.16;;;11.13;92.17
77003;BME280;65939;50.060;14.288;2023-06-14T01:23:06;97075.94;;;11.11;92.92
77003;BME280;65939;50.060;14.288;2023-06-14T01:25:07;97074.47;;;11.09;92.41
77003;BME280;65939;50.060;14.288;2023-06-14T01:27:08;97066.31;;;11.03;92.31
77003;BME280;65939;50.060;14.288;2023-06-14T01:29:10;97079.72;;;11.00;92.37
77003;BME280;65939;50.060;14.288;2023-06-14T01:31:11;97074.81;;;10.97;93.05
77003;BME280;65939;50.060;14.288;2023-06-14T01:33:15;97077.59;;;10.96;92.09
77003;BME280;65939;50.060;14.288;2023-06-14T01:35:16;97080.53;;;10.93;91.97
77003;BME280;65939;50.060;14.288;2023-06-14T01:37:18;97068.78;;;10.89;91.64
77003;BME280;65939;50.060;14.288;2023-06-14T01:39:21;97075.13;;;10.86;91.66
77003;BME280;65939;50.060;14.288;2023-06-14T01:41:24;97075.47;;;10.83;91.36
77003;BME280;65939;50.060;14.288;2023-06-14T01:43:25;97075.78;;;10.80;91.19
77003;BME280;65939;50.060;14.288;2023-06-14T01:45:29;97072.53;;;10.78;90.17
77003;BME280;65939;50.060;14.288;2023-06-14T01:47:31;97077.91;;;10.76;90.76
77003;BME280;65939;50.060;14.288;2023-06-14T01:49:35;97074.47;;;10.76;90.84
77003;BME280;65939;50.060;14.288;2023-06-14T01:51:35;97074.47;;;10.76;91.66
77003;BME280;65939;50.060;14.288;2023-06-14T01:53:36;97072.84;;;10.75;91.28
77003;BME280;65939;50.060;14.288;2023-06-14T01:55:37;97074.66;;;10.74;92.02
77003;BME280;65939;50.060;14.288;2023-06-14T01:57:38;97075.59;;;10.73;92.08
77003;BME280;65939;50.060;14.288;2023-06-14T01:59:38;97079.38;;;10.71;92.24
77003;BME280;65939;50.060;14.288;2023-06-14T02:01:39;97073.47;;;10.69;91.96
77003;BME280;65939;50.060;14.288;2023-06-14T02:03:40;97074.63;;;10.66;92.01
77003;BME280;65939;50.060;14.288;2023-06-14T02:05:42;97073.97;;;10.64;92.32
77003;BME280;65939;50.060;14.288;2023-06-14T02:07:42;97074.28;;;10.61;91.98
77003;BME280;65939;50.060;14.288;2023-06-14T02:09:43;97082.13;;;10.61;92.79
77003;BME280;65939;50.060;14.288;2023-06-14T02:11:44;97076.41;;;10.58;93.14
77003;BME280;65939;50.060;14.288;2023-06-14T02:13:44;97075.09;;;10.53;93.86
77003;BME280;65939;50.060;14.288;2023-06-14T02:15:45;97078.03;;;10.50;93.99
77003;BME280;65939;50.060;14.288;2023-06-14T02:17:47;97086.19;;;10.47;93.28
77003;BME280;65939;50.060;14.288;2023-06-14T02:19:48;97084.56;;;10.46;93.22
77003;BME280;65939;50.060;14.288;2023-06-14T02:21:49;97078.53;;;10.46;93.64
77003;BME280;65939;50.060;14.288;2023-06-14T02:23:49;97086.66;;;10.43;94.30
77003;BME280;65939;50.060;14.288;2023-06-14T02:25:50;97086.00;;;10.41;94.38
77003;BME280;65939;50.060;14.288;2023-06-14T02:27:51;97080.94;;;10.39;94.33
77003;BME280;65939;50.060;14.288;2023-06-14T02:29:51;97078.66;;;10.36;93.65
77003;BME280;65939;50.060;14.288;2023-06-14T02:31:52;97088.41;;;10.34;94.50
77003;BME280;65939;50.060;14.288;2023-06-14T02:33:53;97087.09;;;10.30;94.80
77003;BME280;65939;50.060;14.288;2023-06-14T02:35:53;97092.81;;;10.25;95.10
77003;BME280;65939;50.060;14.288;2023-06-14T02:37:54;97082.47;;;10.24;95.10
77003;BME280;65939;50.060;14.288;2023-06-14T02:39:56;97084.28;;;10.23;94.25
77003;BME280;65939;50.060;14.288;2023-06-14T02:41:56;97093.22;;;10.21;95.13
77003;BME280;65939;50.060;14.288;2023-06-14T02:43:57;97091.78;;;10.18;95.76
77003;BME280;65939;50.060;14.288;2023-06-14T02:45:59;97094.53;;;10.17;95.86
77003;BME280;65939;50.060;14.288;2023-06-14T02:47:59;97094.84;;;10.14;96.38
77003;BME280;65939;50.060;14.288;2023-06-14T02:50:00;97099.56;;;10.10;95.70
77003;BME280;65939;50.060;14.288;2023-06-14T02:52:03;97093.03;;;10.06;95.58
77003;BME280;65939;50.060;14.288;2023-06-14T02:54:03;97098.88;;;10.00;96.47
77003;BME280;65939;50.060;14.288;2023-06-14T02:56:04;97109.75;;;9.95;96.70
77003;BME280;65939;50.060;14.288;2023-06-14T02:58:06;97103.41;;;9.90;96.67
77003;BME280;65939;50.060;14.288;2023-06-14T03:00:07;97103.84;;;9.85;97.28
77003;BME280;65939;50.060;14.288;2023-06-14T03:02:10;97104.63;;;9.77;96.99
77003;BME280;65939;50.060;14.288;2023-06-14T03:04:11;97100.88;;;9.72;97.07
77003;BME280;65939;50.060;14.288;2023-06-14T03:06:12;97101.47;;;9.66;98.09
77003;BME280;65939;50.060;14.288;2023-06-14T03:08:14;97100.16;;;9.62;98.30
77003;BME280;65939;50.060;14.288;2023-06-14T03:10:17;97106.34;;;9.61;98.68
77003;BME280;65939;50.060;14.288;2023-06-14T03:12:17;97108.44;;;9.57;99.19
77003;BME280;65939;50.060;14.288;2023-06-14T03:14:18;97107.59;;;9.56;99.00
77003;BME280;65939;50.060;14.288;2023-06-14T03:16:19;97110.38;;;9.55;99.83
77003;BME280;65939;50.060;14.288;2023-06-14T03:18:21;97107.94;;;9.53;99.34
77003;BME280;65939;50.060;14.288;2023-06-14T03:20:23;97114.09;;;9.52;99.66
77003;BME280;65939;50.060;14.288;2023-06-14T03:22:24;97119.31;;;9.52;99.24
77003;BME280;65939;50.060;14.288;2023-06-14T03:24:26;97109.19;;;9.49;99.78
77003;BME280;65939;50.060;14.288;2023-06-14T03:26:27;97111.97;;;9.48;99.46
77003;BME280;65939;50.060;14.288;2023-06-14T03:28:28;97109.50;;;9.46;100.00
77003;BME280;65939;50.060;14.288;2023-06-14T03:30:32;97117.34;;;9.46;100.00
77003;BME280;65939;50.060;14.288;2023-06-14T03:32:33;97121.56;;;9.47;99.96
77003;BME280;65939;50.060;14.288;2023-06-14T03:34:34;97117.34;;;9.46;99.93
77003;BME280;65939;50.060;14.288;2023-06-14T03:36:35;97123.34;;;9.47;99.81
77003;BME280;65939;50.060;14.288;2023-06-14T03:38:35;97125.78;;;9.48;99.96
77003;BME280;65939;50.060;14.288;2023-06-14T03:40:36;97131.81;;;9.49;100.00
77003;BME280;65939;50.060;14.288;2023-06-14T03:42:37;97129.09;;;9.50;100.00
77003;BME280;65939;50.060;14.288;2023-06-14T03:44:37;97133.47;;;9.50;100.00
77003;BME280;65939;50.060;14.288;2023-06-14T03:46:38;97130.03;;;9.49;100.00
77003;BME280;65939;50.060;14.288;2023-06-14T03:48:39;97143.75;;;9.51;100.00
77003;BME280;65939;50.060;14.288;2023-06-14T03:50:40;97130.41;;;9.54;100.00
77003;BME280;65939;50.060;14.288;2023-06-14T03:52:43;97134.16;;;9.60;100.00
77003;BME280;65939;50.060;14.288;2023-06-14T03:54:44;97136.34;;;9.65;100.00
77003;BME280;65939;50.060;14.288;2023-06-14T03:56:44;97139.28;;;9.70;100.00
77003;BME280;65939;50.060;14.288;2023-06-14T03:58:46;97144.88;;;9.75;100.00
77003;BME280;65939;50.060;14.288;2023-06-14T04:00:47;97143.44;;;9.80;100.00
77003;BME280;65939;50.060;14.288;2023-06-14T04:02:48;97147.88;;;9.88;100.00
77003;BME280;65939;50.060;14.288;2023-06-14T04:04:49;97139.44;;;9.94;100.00
77003;BME280;65939;50.060;14.288;2023-06-14T04:06:50;97137.53;;;10.04;100.00
77003;BME280;65939;50.060;14.288;2023-06-14T04:08:51;97127.50;;;10.18;99.94
77003;BME280;65939;50.060;14.288;2023-06-14T04:10:52;97142.38;;;10.25;99.04
77003;BME280;65939;50.060;14.288;2023-06-14T04:12:53;97143.22;;;10.34;98.99
77003;BME280;65939;50.060;14.288;2023-06-14T04:14:53;97142.28;;;10.43;98.01
77003;BME280;65939;50.060;14.288;2023-06-14T04:16:54;97139.88;;;10.50;97.54
77003;BME280;65939;50.060;14.288;2023-06-14T04:18:55;97144.78;;;10.61;97.17
77003;BME280;65939;50.060;14.288;2023-06-14T04:20:56;97147.09;;;10.72;97.45
77003;BME280;65939;50.060;14.288;2023-06-14T04:22:57;97146.16;;;10.82;97.14
77003;BME280;65939;50.060;14.288;2023-06-14T04:24:57;97139.63;;;10.94;96.12
77003;BME280;65939;50.060;14.288;2023-06-14T04:26:59;97155.16;;;11.03;95.74
77003;BME280;65939;50.060;14.288;2023-06-14T04:29:02;97147.13;;;11.13;94.69
77003;BME280;65939;50.060;14.288;2023-06-14T04:31:03;97146.34;;;11.21;94.24
77003;BME280;65939;50.060;14.288;2023-06-14T04:33:05;97149.75;;;11.30;93.75
77003;BME280;65939;50.060;14.288;2023-06-14T04:35:09;97146.00;;;11.40;93.72
77003;BME280;65939;50.060;14.288;2023-06-14T04:37:09;97145.84;;;11.50;92.92
77003;BME280;65939;50.060;14.288;2023-06-14T04:39:10;97145.31;;;11.63;93.21
77003;BME280;65939;50.060;14.288;2023-06-14T04:41:10;97140.91;;;11.71;92.90
77003;BME280;65939;50.060;14.288;2023-06-14T04:43:12;97145.31;;;11.79;92.16
77003;BME280;65939;50.060;14.288;2023-06-14T04:45:12;97144.34;;;11.88;91.89
77003;BME280;65939;50.060;14.288;2023-06-14T04:47:13;97153.78;;;11.97;91.48
77003;BME280;65939;50.060;14.288;2023-06-14T04:49:16;97141.66;;;12.05;91.68
77003;BME280;65939;50.060;14.288;2023-06-14T04:51:17;97147.84;;;12.12;90.88
77003;BME280;65939;50.060;14.288;2023-06-14T04:53:21;97155.84;;;12.18;90.28
77003;BME280;65939;50.060;14.288;2023-06-14T04:55:23;97150.78;;;12.25;89.37
77003;BME280;65939;50.060;14.288;2023-06-14T04:57:25;97155.34;;;12.31;89.50
77003;BME280;65939;50.060;14.288;2023-06-14T04:59:25;97154.81;;;12.36;89.69
77003;BME280;65939;50.060;14.288;2023-06-14T05:01:26;97161.00;;;12.43;89.87
77003;BME280;65939;50.060;14.288;2023-06-14T05:03:27;97152.94;;;12.53;89.20
77003;BME280;65939;50.060;14.288;2023-06-14T05:05:28;97152.56;;;12.64;90.10
77003;BME280;65939;50.060;14.288;2023-06-14T05:07:28;97146.28;;;12.73;88.47
77003;BME280;65939;50.060;14.288;2023-06-14T05:09:29;97146.75;;;12.77;87.93
77003;BME280;65939;50.060;14.288;2023-06-14T05:11:29;97146.25;;;12.81;88.00
77003;BME280;65939;50.060;14.288;2023-06-14T05:13:30;97145.19;;;12.90;88.61
77003;BME280;65939;50.060;14.288;2023-06-14T05:15:33;97145.78;;;13.01;87.54
77003;BME280;65939;50.060;14.288;2023-06-14T05:17:34;97150.78;;;13.10;86.87
77003;BME280;65939;50.060;14.288;2023-06-14T05:19:36;97144.03;;;13.16;86.14
77003;BME280;65939;50.060;14.288;2023-06-14T05:21:37;97161.56;;;13.24;86.05
77003;BME280;65939;50.060;14.288;2023-06-14T05:23:37;97154.63;;;13.31;85.63
77003;BME280;65939;50.060;14.288;2023-06-14T05:25:38;97162.56;;;13.37;85.40
77003;BME280;65939;50.060;14.288;2023-06-14T05:27:39;97163.16;;;13.48;84.62
77003;BME280;65939;50.060;14.288;2023-06-14T05:29:41;97160.47;;;13.56;84.36
77003;BME280;65939;50.060;14.288;2023-06-14T05:31:42;97166.91;;;13.68;84.96
77003;BME280;65939;50.060;14.288;2023-06-14T05:33:43;97166.56;;;13.71;83.99
77003;BME280;65939;50.060;14.288;2023-06-14T05:35:44;97168.94;;;13.81;83.84
77003;BME280;65939;50.060;14.288;2023-06-14T05:37:45;97169.75;;;13.81;83.37
77003;BME280;65939;50.060;14.288;2023-06-14T05:39:46;97174.34;;;13.79;83.12
77003;BME280;65939;50.060;14.288;2023-06-14T05:41:46;97178.31;;;13.75;82.41
77003;BME280;65939;50.060;14.288;2023-06-14T05:43:47;97184.56;;;13.74;82.53
77003;BME280;65939;50.060;14.288;2023-06-14T05:45:48;97181.75;;;13.76;81.95
77003;BME280;65939;50.060;14.288;2023-06-14T05:47:48;97174.53;;;13.78;81.94
77003;BME280;65939;50.060;14.288;2023-06-14T05:49:49;97173.72;;;13.77;81.56
77003;BME280;65939;50.060;14.288;2023-06-14T05:51:50;97175.00;;;13.81;81.88
77003;BME280;65939;50.060;14.288;2023-06-14T05:53:51;97175.25;;;13.86;82.04
77003;BME280;65939;50.060;14.288;2023-06-14T05:55:52;97179.81;;;13.93;82.13
77003;BME280;65939;50.060;14.288;2023-06-14T05:57:55;97179.09;;;13.99;81.30
77003;BME280;65939;50.060;14.288;2023-06-14T05:59:55;97178.72;;;14.02;81.40
77003;BME280;65939;50.060;14.288;2023-06-14T06:01:56;97181.44;;;14.08;80.82
77003;BME280;65939;50.060;14.288;2023-06-14T06:03:57;97176.63;;;14.12;80.96
77003;BME280;65939;50.060;14.288;2023-06-14T06:05:58;97176.72;;;14.19;81.30
77003;BME280;65939;50.060;14.288;2023-06-14T06:07:59;97181.47;;;14.23;81.54
77003;BME280;65939;50.060;14.288;2023-06-14T06:10:01;97190.25;;;14.30;81.08
77003;BME280;65939;50.060;14.288;2023-06-14T06:12:06;97202.28;;;14.40;81.48
77003;BME280;65939;50.060;14.288;2023-06-14T06:14:07;97198.91;;;14.46;80.77
77003;BME280;65939;50.060;14.288;2023-06-14T06:16:08;97196.47;;;14.44;80.55
77003;BME280;65939;50.060;14.288;2023-06-14T06:18:08;97193.31;;;14.49;80.71
77003;BME280;65939;50.060;14.288;2023-06-14T06:20:09;97207.81;;;14.59;80.17
77003;BME280;65939;50.060;14.288;2023-06-14T06:22:12;97209.09;;;14.64;79.91
77003;BME280;65939;50.060;14.288;2023-06-14T06:24:12;97212.16;;;14.67;80.07
77003;BME280;65939;50.060;14.288;2023-06-14T06:26:14;97220.28;;;14.72;79.50
77003;BME280;65939;50.060;14.288;2023-06-14T06:28:15;97216.03;;;14.71;79.01
77003;BME280;65939;50.060;14.288;2023-06-14T06:30:16;97218.75;;;14.78;79.72
77003;BME280;65939;50.060;14.288;2023-06-14T06:32:16;97219.22;;;14.81;79.33
77003;BME280;65939;50.060;14.288;2023-06-14T06:34:17;97226.09;;;14.82;79.64
77003;BME280;65939;50.060;14.288;2023-06-14T06:36:18;97219.84;;;14.83;79.58
77003;BME280;65939;50.060;14.288;2023-06-14T06:38:18;97224.25;;;14.98;79.68
77003;BME280;65939;50.060;14.288;2023-06-14T06:40:19;97226.03;;;15.12;79.81
77003;BME280;65939;50.060;14.288;2023-06-14T06:42:20;97228.28;;;15.15;79.12
77003;BME280;65939;50.060;14.288;2023-06-14T06:44:21;97231.41;;;15.25;79.09
77003;BME280;65939;50.060;14.288;2023-06-14T06:46:22;97233.19;;;15.40;79.29
77003;BME280;65939;50.060;14.288;2023-06-14T06:48:23;97228.06;;;15.53;78.26
77003;BME280;65939;50.060;14.288;2023-06-14T06:50:23;97232.81;;;15.64;79.29
77003;BME280;65939;50.060;14.288;2023-06-14T06:52:25;97227.13;;;15.82;79.85
77003;BME280;65939;50.060;14.288;2023-06-14T06:54:26;97230.69;;;15.96;78.62
77003;BME280;65939;50.060;14.288;2023-06-14T06:56:27;97229.50;;;15.98;78.75
77003;BME280;65939;50.060;14.288;2023-06-14T06:58:29;97234.38;;;16.01;76.76
77003;BME280;65939;50.060;14.288;2023-06-14T07:00:30;97232.19;;;16.05;77.02
77003;BME280;65939;50.060;14.288;2023-06-14T07:02:31;97241.75;;;16.13;76.89
77003;BME280;65939;50.060;14.288;2023-06-14T07:04:31;97237.38;;;16.26;77.36
77003;BME280;65939;50.060;14.288;2023-06-14T07:06:32;97230.34;;;16.34;75.94
77003;BME280;65939;50.060;14.288;2023-06-14T07:08:33;97243.34;;;16.42;76.89
77003;BME280;65939;50.060;14.288;2023-06-14T07:10:33;97245.00;;;16.49;76.85
77003;BME280;65939;50.060;14.288;2023-06-14T07:12:35;97246.28;;;16.60;77.73
77003;BME280;65939;50.060;14.288;2023-06-14T07:14:39;97247.53;;;16.64;75.33
77003;BME280;65939;50.060;14.288;2023-06-14T07:16:40;97246.84;;;16.49;74.63
77003;BME280;65939;50.060;14.288;2023-06-14T07:18:41;97244.75;;;16.38;75.29
77003;BME280;65939;50.060;14.288;2023-06-14T07:20:42;97250.03;;;16.38;74.92
77003;BME280;65939;50.060;14.288;2023-06-14T07:22:43;97244.84;;;16.51;75.27
77003;BME280;65939;50.060;14.288;2023-06-14T07:24:44;97252.63;;;16.66;76.07
77003;BME280;65939;50.060;14.288;2023-06-14T07:26:44;97243.59;;;16.82;75.31
77003;BME280;65939;50.060;14.288;2023-06-14T07:28:46;97244.44;;;16.89;74.62
77003;BME280;65939;50.060;14.288;2023-06-14T07:30:47;97244.88;;;16.99;73.97
77003;BME280;65939;50.060;14.288;2023-06-14T07:32:48;97244.53;;;17.15;74.56
77003;BME280;65939;50.060;14.288;2023-06-14T07:34:50;97234.03;;;17.35;73.94
77003;BME280;65939;50.060;14.288;2023-06-14T07:36:51;97251.94;;;17.53;73.48
77003;BME280;65939;50.060;14.288;2023-06-14T07:38:51;97255.22;;;17.62;72.22
77003;BME280;65939;50.060;14.288;2023-06-14T07:40:52;97251.97;;;17.73;70.81
77003;BME280;65939;50.060;14.288;2023-06-14T07:42:53;97256.66;;;17.84;70.40
77003;BME280;65939;50.060;14.288;2023-06-14T07:44:55;97256.69;;;17.91;69.16
77003;BME280;65939;50.060;14.288;2023-06-14T07:46:55;97252.22;;;17.98;70.69
77003;BME280;65939;50.060;14.288;2023-06-14T07:48:58;97248.13;;;18.09;69.68
77003;BME280;65939;50.060;14.288;2023-06-14T07:50:59;97254.63;;;18.13;69.80
77003;BME280;65939;50.060;14.288;2023-06-14T07:53:01;97252.41;;;18.23;68.83
77003;BME280;65939;50.060;14.288;2023-06-14T07:55:03;97255.22;;;18.35;68.83
77003;BME280;65939;50.060;14.288;2023-06-14T07:57:04;97255.03;;;18.43;67.74
77003;BME280;65939;50.060;14.288;2023-06-14T07:59:06;97258.47;;;18.50;67.31
77003;BME280;65939;50.060;14.288;2023-06-14T08:01:08;97264.31;;;18.65;67.89
77003;BME280;65939;50.060;14.288;2023-06-14T08:03:09;97254.16;;;18.76;67.31
77003;BME280;65939;50.060;14.288;2023-06-14T08:05:10;97262.06;;;18.89;66.58
77003;BME280;65939;50.060;14.288;2023-06-14T08:07:11;97254.28;;;19.01;66.47
77003;BME280;65939;50.060;14.288;2023-06-14T08:09:13;97260.31;;;19.14;66.67
77003;BME280;65939;50.060;14.288;2023-06-14T08:11:13;97259.66;;;19.26;65.78
77003;BME280;65939;50.060;14.288;2023-06-14T08:13:14;97263.09;;;19.26;64.63
77003;BME280;65939;50.060;14.288;2023-06-14T08:15:16;97264.34;;;19.24;64.39
77003;BME280;65939;50.060;14.288;2023-06-14T08:17:16;97262.31;;;19.19;64.54
77003;BME280;65939;50.060;14.288;2023-06-14T08:19:17;97258.69;;;19.13;64.35
77003;BME280;65939;50.060;14.288;2023-06-14T08:21:18;97266.84;;;19.12;65.04
77003;BME280;65939;50.060;14.288;2023-06-14T08:23:19;97271.66;;;19.28;65.30
77003;BME280;65939;50.060;14.288;2023-06-14T08:25:21;97267.81;;;19.56;65.75
77003;BME280;65939;50.060;14.288;2023-06-14T08:27:22;97271.72;;;19.85;64.03
77003;BME280;65939;50.060;14.288;2023-06-14T08:29:23;97265.06;;;20.07;64.86
77003;BME280;65939;50.060;14.288;2023-06-14T08:31:24;97270.25;;;20.21;63.48
77003;BME280;65939;50.060;14.288;2023-06-14T08:33:26;97271.63;;;20.23;62.52
77003;BME280;65939;50.060;14.288;2023-06-14T08:35:26;97272.63;;;20.29;63.70
77003;BME280;65939;50.060;14.288;2023-06-14T08:37:27;97279.44;;;20.43;63.39
77003;BME280;65939;50.060;14.288;2023-06-14T08:39:27;97279.72;;;20.60;62.07
77003;BME280;65939;50.060;14.288;2023-06-14T08:41:28;97276.44;;;20.58;61.63
77003;BME280;65939;50.060;14.288;2023-06-14T08:43:29;97281.53;;;20.60;60.69
77003;BME280;65939;50.060;14.288;2023-06-14T08:45:30;97281.81;;;20.51;60.75
77003;BME280;65939;50.060;14.288;2023-06-14T08:47:32;97279.00;;;20.46;62.59
77003;BME280;65939;50.060;14.288;2023-06-14T08:49:38;97282.63;;;20.52;62.04
77003;BME280;65939;50.060;14.288;2023-06-14T08:51:43;97287.22;;;20.63;62.19
77003;BME280;65939;50.060;14.288;2023-06-14T08:53:44;97290.69;;;20.64;61.09
77003;BME280;65939;50.060;14.288;2023-06-14T08:55:46;97289.66;;;20.40;60.79
77003;BME280;65939;50.060;14.288;2023-06-14T08:57:49;97284.13;;;20.16;61.30
77003;BME280;65939;50.060;14.288;2023-06-14T08:59:51;97283.38;;;20.09;62.33
77003;BME280;65939;50.060;14.288;2023-06-14T09:01:55;97285.88;;;20.04;61.10
77003;BME280;65939;50.060;14.288;2023-06-14T09:03:55;97276.94;;;19.98;61.89
77003;BME280;65939;50.060;14.288;2023-06-14T09:05:57;97282.25;;;19.98;62.95
77003;BME280;65939;50.060;14.288;2023-06-14T09:07:59;97289.94;;;20.06;63.07
77003;BME280;65939;50.060;14.288;2023-06-14T09:10:09;97285.94;;;20.22;63.53
77003;BME280;65939;50.060;14.288;2023-06-14T09:12:11;97281.69;;;20.40;63.26
77003;BME280;65939;50.060;14.288;2023-06-14T09:14:13;97286.47;;;20.56;62.09
77003;BME280;65939;50.060;14.288;2023-06-14T09:16:14;97285.44;;;20.57;61.81
77003;BME280;65939;50.060;14.288;2023-06-14T09:18:15;97285.22;;;20.59;62.17
77003;BME280;65939;50.060;14.288;2023-06-14T09:20:15;97291.06;;;20.42;61.32
77003;BME280;65939;50.060;14.288;2023-06-14T09:22:19;97283.06;;;20.24;60.98
77003;BME280;65939;50.060;14.288;2023-06-14T09:24:19;97285.50;;;20.00;61.13
77003;BME280;65939;50.060;14.288;2023-06-14T09:26:20;97281.25;;;19.68;60.75
77003;BME280;65939;50.060;14.288;2023-06-14T09:28:26;97282.13;;;19.48;62.21
77003;BME280;65939;50.060;14.288;2023-06-14T09:30:28;97280.72;;;19.46;62.31
77003;BME280;65939;50.060;14.288;2023-06-14T09:32:29;97283.97;;;19.48;62.95
77003;BME280;65939;50.060;14.288;2023-06-14T09:34:30;97288.19;;;19.55;62.23
77003;BME280;65939;50.060;14.288;2023-06-14T09:36:32;97281.03;;;19.69;61.31
77003;BME280;65939;50.060;14.288;2023-06-14T09:38:34;97280.56;;;19.79;61.57
77003;BME280;65939;50.060;14.288;2023-06-14T09:40:35;97285.13;;;19.97;61.40
77003;BME280;65939;50.060;14.288;2023-06-14T09:42:39;97280.41;;;20.24;60.71
77003;BME280;65939;50.060;14.288;2023-06-14T09:44:41;97282.84;;;20.50;60.46
77003;BME280;65939;50.060;14.288;2023-06-14T09:46:43;97282.81;;;20.75;59.80
77003;BME280;65939;50.060;14.288;2023-06-14T09:48:44;97273.81;;;20.95;60.54
77003;BME280;65939;50.060;14.288;2023-06-14T09:50:46;97274.19;;;21.17;59.53
77003;BME280;65939;50.060;14.288;2023-06-14T09:52:52;97273.84;;;21.43;58.96
77003;BME280;65939;50.060;14.288;2023-06-14T09:54:56;97263.75;;;21.64;58.12
77003;BME280;65939;50.060;14.288;2023-06-14T09:57:01;97267.06;;;21.89;59.18
77003;BME280;65939;50.060;14.288;2023-06-14T09:59:05;97262.25;;;22.10;57.64
77003;BME280;65939;50.060;14.288;2023-06-14T10:01:09;97260.66;;;22.32;57.78
77003;BME280;65939;50.060;14.288;2023-06-14T10:03:20;97264.00;;;22.39;56.88
77003;BME280;65939;50.060;14.288;2023-06-14T10:05:23;97270.25;;;22.33;55.65
77003;BME280;65939;50.060;14.288;2023-06-14T10:07:26;97268.50;;;22.15;55.95
77003;BME280;65939;50.060;14.288;2023-06-14T10:09:28;97271.88;;;21.81;54.54
77003;BME280;65939;50.060;14.288;2023-06-14T10:11:30;97267.06;;;21.29;54.29
77003;BME280;65939;50.060;14.288;2023-06-14T10:13:32;97271.00;;;20.90;54.82
77003;BME280;65939;50.060;14.288;2023-06-14T10:15:48;97273.13;;;20.63;57.35
77003;BME280;65939;50.060;14.288;2023-06-14T10:17:58;97270.88;;;20.41;55.56
77003;BME280;65939;50.060;14.288;2023-06-14T10:20:27;97260.66;;;20.20;56.55
77003;BME280;65939;50.060;14.288;2023-06-14T10:22:34;97259.09;;;20.12;56.08
77003;BME280;65939;50.060;14.288;2023-06-14T10:24:43;97266.19;;;20.18;56.61
77003;BME280;65939;50.060;14.288;2023-06-14T10:26:53;97266.28;;;20.30;56.52
77003;BME280;65939;50.060;14.288;2023-06-14T10:29:00;97261.53;;;20.39;56.75
77003;BME280;65939;50.060;14.288;2023-06-14T10:31:10;97253.25;;;20.53;56.92
77003;BME280;65939;50.060;14.288;2023-06-14T10:33:14;97257.31;;;20.74;55.96
77003;BME280;65939;50.060;14.288;2023-06-14T10:35:16;97254.50;;;20.88;55.08
77003;BME280;65939;50.060;14.288;2023-06-14T10:37:17;97251.91;;;20.99;53.88
77003;BME280;65939;50.060;14.288;2023-06-14T10:39:18;97257.88;;;21.13;55.41
77003;BME280;65939;50.060;14.288;2023-06-14T10:41:20;97258.72;;;21.44;55.84